This is the latest recevied weather packets stored in our database for station/object SP6RGZ-1. If no packets are shown the sender has not sent any weather packets the latest 10 day(s).
| Time | Temp. | Humidity | Pressure | Rain* | Wind** | Luminosity | Snow |
|---|---|---|---|---|---|---|---|
| 1777959002 | 21.67° C | 52% | 990.1 hPa | - | - | - | - |
| 1777958102 | 21.11° C | 54% | 990.3 hPa | - | - | - | - |
| 1777957202 | 21.67° C | 52% | 990.3 hPa | - | - | - | - |
| 1777956302 | 22.22° C | 54% | 990.1 hPa | - | - | - | - |
| 1777955402 | 20.56° C | 60% | 990.2 hPa | - | - | - | - |
| 1777954503 | 18.89° C | 65% | 990.3 hPa | - | - | - | - |
| 1777953602 | 16.67° C | 73% | 990.4 hPa | - | - | - | - |
| 1777952702 | 15.56° C | 77% | 990.5 hPa | - | - | - | - |
| 1777951802 | 15.56° C | 77% | 990.5 hPa | - | - | - | - |
| 1777950902 | 16.11° C | 76% | 990.5 hPa | - | - | - | - |
| 1777950002 | 16.11° C | 75% | 990.7 hPa | - | - | - | - |
| 1777949102 | 16.11° C | 75% | 990.6 hPa | - | - | - | - |
| 1777948202 | 16.11° C | 74% | 990.8 hPa | - | - | - | - |
| 1777947302 | 16.67° C | 72% | 991 hPa | - | - | - | - |
| 1777946402 | 16.67° C | 72% | 991 hPa | - | - | - | - |
| 1777945502 | 16.67° C | 71% | 991.2 hPa | - | - | - | - |
| 1777944602 | 16.67° C | 70% | 991.2 hPa | - | - | - | - |
| 1777943702 | 16.67° C | 70% | 991.3 hPa | - | - | - | - |
| 1777942802 | 17.22° C | 69% | 991.3 hPa | - | - | - | - |
| 1777941902 | 16.67° C | 70% | 991.3 hPa | - | - | - | - |
| 1777941002 | 16.67° C | 70% | 991.5 hPa | - | - | - | - |
| 1777940102 | 16.67° C | 69% | 991.6 hPa | - | - | - | - |
| 1777939203 | 16.67° C | 69% | 991.6 hPa | - | - | - | - |
| 1777938302 | 17.22° C | 69% | 991.8 hPa | - | - | - | - |
| 1777937402 | 17.22° C | 69% | 992 hPa | - | - | - | - |
* Rain since midnight (hover to see other rain measurements)
** Current wind speed in m/s (hover to see current wind gust speed)